Terminal Aerodrome Forecast
Issued by NWS Wilmington, OH

Current Version | Previous Version | Graphics & Text | Print | Product List | Glossary On
Versions: 1 2 3 4 5 6 7 8 9 10 11 12 13 14 15 16 17 18 19 20 21 22 23 24 25 26 27 28 29 30 31 32 33
000
FTUS41 KILN 261100
TAFCVG
TAF
KCVG 261121Z 2612/2718 21006KT P6SM BKN080
     FM261400 22008KT P6SM VCTS BKN040CB
     FM261700 22010KT P6SM SCT040 BKN250
     FM270200 23006KT P6SM VCTS BKN040CB OVC150
      TEMPO 2704/2707 2SM -TSRA OVC020CB
     FM270900 19006KT P6SM BKN100
     FM271400 24014G22KT P6SM VCTS BKN030CB=

USA.gov is the U.S. government's official web portal to all federal, state and local government web resources and services.